Time;durP1;ratioP1;P1;durP2;ratioP2;P2;SDS_P1;SDS_P2;PMS_P1;PMS_P2;Temp;Humidity;BMP_temperature;BMP_pressure;BME280_temperature;BME280_humidity;BME280_pressure;Samples;Min_cycle;Max_cycle;Signal;HPM_P1;HPM_P2
2021/11/12 00:12:05;;;;;;;23.77;15.70;;;1.70;99.90;;;;;;5076598;28;20226;-60
2021/11/12 00:14:35;;;;;;;26.10;15.98;;;1.60;99.90;;;;;;5092056;28;20646;-61
2021/11/12 00:17:09;;;;;;;21.25;15.43;;;1.50;99.90;;;;;;5092445;28;20202;-62
2021/11/12 00:19:38;;;;;;;24.23;16.77;;;1.40;99.90;;;;;;5084112;28;20222;-61
2021/11/12 00:22:07;;;;;;;23.17;16.17;;;1.50;99.90;;;;;;5071998;28;20653;-61
2021/11/12 00:24:35;;;;;;;25.10;15.90;;;1.60;99.90;;;;;;5071604;28;20220;-61
2021/11/12 00:27:05;;;;;;;28.70;17.30;;;1.60;99.90;;;;;;5071718;28;20216;-62
2021/11/12 00:29:40;;;;;;;31.58;17.55;;;1.80;99.90;;;;;;5071583;28;20219;-61
2021/11/12 00:32:18;;;;;;;27.83;17.55;;;1.90;99.90;;;;;;5072234;28;20188;-60
2021/11/12 00:35:11;;;;;;;32.60;17.10;;;1.90;99.90;;;;;;5071270;28;20257;-60
2021/11/12 00:37:53;;;;;;;24.30;15.75;;;1.80;99.90;;;;;;5071852;28;20261;-62
2021/11/12 00:40:24;;;;;;;30.92;17.98;;;1.80;99.90;;;;;;5071549;28;20636;-62
2021/11/12 00:45:47;;;;;;;26.58;17.63;;;1.80;99.90;;;;;;5071252;28;20219;-61
2021/11/12 00:48:20;;;;;;;28.90;16.27;;;1.70;99.90;;;;;;5071973;28;20680;-62
2021/11/12 00:50:59;;;;;;;26.27;15.88;;;1.70;99.90;;;;;;5071213;28;20274;-62
2021/11/12 00:56:27;;;;;;;26.88;16.70;;;1.60;99.90;;;;;;5035385;28;20269;-61
2021/11/12 00:58:57;;;;;;;29.70;16.88;;;1.60;99.90;;;;;;5066166;28;20223;-62
2021/11/12 01:01:27;;;;;;;25.27;17.13;;;1.70;99.90;;;;;;5071872;28;20192;-61
2021/11/12 01:03:58;;;;;;;27.45;16.67;;;1.80;99.90;;;;;;5077177;28;20222;-61
2021/11/12 01:06:28;;;;;;;25.40;17.20;;;1.80;99.90;;;;;;5091939;28;20692;-62
2021/11/12 01:08:57;;;;;;;26.90;17.42;;;1.80;99.90;;;;;;5091215;28;20271;-61
2021/11/12 01:11:26;;;;;;;26.17;17.48;;;1.80;99.90;;;;;;5086170;28;20665;-61
2021/11/12 01:13:55;;;;;;;26.35;17.08;;;1.90;99.90;;;;;;5091461;28;20226;-61
2021/11/12 01:16:23;;;;;;;22.95;16.67;;;1.90;99.90;;;;;;5090430;28;20264;-62
2021/11/12 01:18:51;;;;;;;29.77;17.48;;;1.90;99.90;;;;;;5091225;28;20230;-63
2021/11/12 01:21:21;;;;;;;26.90;17.35;;;1.90;99.90;;;;;;5082000;28;20241;-60
2021/11/12 01:23:52;;;;;;;24.27;17.08;;;2.00;99.90;;;;;;5070836;28;20227;-60
2021/11/12 01:26:21;;;;;;;26.17;17.05;;;2.10;99.90;;;;;;5071577;28;20284;-62
2021/11/12 01:28:50;;;;;;;25.20;16.77;;;2.00;99.90;;;;;;5071304;28;20628;-61
2021/11/12 01:31:22;;;;;;;25.88;16.42;;;1.90;99.90;;;;;;5071358;28;20196;-61
2021/11/12 01:33:50;;;;;;;23.75;16.50;;;1.90;99.90;;;;;;5070998;28;20219;-61
2021/11/12 01:36:28;;;;;;;27.15;17.02;;;1.80;99.90;;;;;;5092537;28;20294;-61
2021/11/12 01:39:01;;;;;;;29.38;16.63;;;1.70;99.90;;;;;;5091304;28;20219;-62
2021/11/12 01:41:31;;;;;;;28.98;16.60;;;1.70;99.90;;;;;;5083803;28;20212;-62
2021/11/12 01:44:02;;;;;;;31.88;17.55;;;1.70;99.90;;;;;;5070778;28;20678;-61
2021/11/12 01:46:38;;;;;;;23.88;15.40;;;1.70;99.90;;;;;;5071063;28;20685;-62
2021/11/12 01:49:17;;;;;;;25.13;16.90;;;1.70;99.90;;;;;;5071093;28;20705;-62
2021/11/12 01:51:50;;;;;;;30.80;18.33;;;1.80;99.90;;;;;;5071442;28;20295;-62
2021/11/12 01:54:36;;;;;;;25.05;16.80;;;1.80;99.90;;;;;;5072920;28;20485;-61
2021/11/12 01:59:55;;;;;;;26.20;16.42;;;1.60;99.90;;;;;;5048775;28;20215;-62
2021/11/12 02:02:25;;;;;;;28.00;18.45;;;1.60;99.90;;;;;;5074949;28;20218;-61
2021/11/12 02:04:56;;;;;;;23.92;15.75;;;1.60;99.90;;;;;;5074412;28;20224;-61
2021/11/12 02:07:24;;;;;;;24.35;15.52;;;1.60;99.90;;;;;;5074859;28;20192;-62
2021/11/12 02:09:53;;;;;;;30.52;17.88;;;1.60;99.90;;;;;;5074171;28;20242;-62
2021/11/12 02:12:28;;;;;;;28.02;17.25;;;1.70;99.90;;;;;;5084364;28;20610;-61
2021/11/12 02:14:58;;;;;;;26.38;19.05;;;1.70;99.90;;;;;;5094463;28;20249;-61
2021/11/12 02:17:29;;;;;;;29.20;17.80;;;1.80;99.90;;;;;;5094781;28;20203;-61
2021/11/12 02:20:04;;;;;;;30.27;17.10;;;1.80;99.90;;;;;;5081885;28;20314;-61
2021/11/12 02:22:37;;;;;;;32.08;16.52;;;1.90;99.90;;;;;;5074427;28;20672;-61
2021/11/12 02:25:09;;;;;;;26.70;16.38;;;1.80;99.90;;;;;;5073799;28;20219;-60
2021/11/12 02:27:43;;;;;;;22.98;15.32;;;1.80;99.90;;;;;;5074196;28;20683;-61
2021/11/12 02:30:20;;;;;;;20.58;15.10;;;1.80;99.90;;;;;;5074191;28;20219;-62
2021/11/12 02:32:57;;;;;;;26.65;16.48;;;1.80;99.90;;;;;;5090297;28;20261;-61
2021/11/12 02:35:26;;;;;;;23.40;15.02;;;1.90;99.90;;;;;;5073731;28;20224;-61
2021/11/12 02:37:56;;;;;;;23.15;15.45;;;1.90;99.90;;;;;;5073220;28;20337;-61
2021/11/12 02:40:25;;;;;;;27.23;16.20;;;1.90;99.90;;;;;;5073822;28;20223;-61
2021/11/12 02:42:53;;;;;;;21.33;14.20;;;1.90;99.90;;;;;;5073807;28;20261;-60
2021/11/12 02:45:22;;;;;;;23.80;15.05;;;1.90;99.90;;;;;;5073438;28;20282;-61
2021/11/12 02:47:50;;;;;;;21.45;14.27;;;1.90;99.90;;;;;;5074088;28;20219;-61
2021/11/12 02:50:19;;;;;;;26.60;15.82;;;1.90;99.90;;;;;;5091936;28;20333;-61
2021/11/12 02:52:53;;;;;;;24.60;14.60;;;1.80;99.90;;;;;;5094148;28;20214;-61
2021/11/12 02:55:23;;;;;;;22.58;14.70;;;1.90;99.90;;;;;;5092193;28;20751;-61
2021/11/12 02:57:51;;;;;;;25.92;15.35;;;1.80;99.90;;;;;;5073786;28;20216;-62
2021/11/12 03:00:22;;;;;;;24.23;15.60;;;1.80;99.90;;;;;;5073263;28;20227;-62
2021/11/12 03:02:50;;;;;;;31.73;15.93;;;1.80;99.90;;;;;;5073952;28;20192;-61
2021/11/12 03:05:18;;;;;;;20.73;14.15;;;1.90;99.90;;;;;;5070824;28;20228;-61
2021/11/12 03:07:47;;;;;;;21.17;14.40;;;1.80;99.90;;;;;;5073681;28;20234;-63
2021/11/12 03:10:15;;;;;;;24.52;14.32;;;1.80;99.90;;;;;;5072988;28;20250;-62
2021/11/12 03:12:45;;;;;;;24.33;15.85;;;1.80;99.90;;;;;;5086780;28;20221;-60
2021/11/12 03:15:13;;;;;;;23.63;15.68;;;1.80;99.90;;;;;;5093271;28;20233;-61
2021/11/12 03:17:43;;;;;;;21.80;12.93;;;1.80;99.90;;;;;;5093972;28;20234;-62
2021/11/12 03:20:13;;;;;;;21.98;12.93;;;1.80;99.90;;;;;;5086587;28;20321;-61
2021/11/12 03:22:48;;;;;;;20.13;14.60;;;1.70;99.90;;;;;;5073019;28;20192;-60
2021/11/12 03:25:25;;;;;;;24.77;13.57;;;1.70;99.90;;;;;;5071294;28;20234;-61
2021/11/12 03:28:06;;;;;;;18.95;13.68;;;1.70;99.90;;;;;;5073347;28;20273;-62
2021/11/12 04:01:34;;;;;;;14.00;9.20;;;1.40;99.90;;;;;;5061711;28;20211;-62
2021/11/12 04:04:16;;;;;;;14.13;9.25;;;1.40;99.90;;;;;;5071682;28;20218;-60
2021/11/12 04:06:48;;;;;;;13.52;9.32;;;1.40;99.90;;;;;;5058921;28;20224;-61
2021/11/12 04:20:28;;;;;;;11.02;8.88;;;1.20;99.90;;;;;;5058937;28;20774;-62
2021/11/12 05:12:50;;;;;;;14.65;9.57;;;1.20;99.90;;;;;;5086431;28;20209;-62
2021/11/12 05:46:15;;;;;;;18.92;8.63;;;1.50;99.90;;;;;;5074923;28;20211;-60
2021/11/12 05:51:37;;;;;;;21.30;9.45;;;1.50;99.90;;;;;;5075196;28;20661;-62
2021/11/12 05:56:55;;;;;;;22.83;9.05;;;1.60;99.90;;;;;;5074786;28;20219;-60
2021/11/12 05:59:24;;;;;;;25.55;11.23;;;1.50;99.90;;;;;;5094444;28;20223;-64
2021/11/12 06:01:53;;;;;;;17.13;9.82;;;1.50;99.90;;;;;;5095120;28;20579;-62
2021/11/12 06:04:22;;;;;;;20.17;9.65;;;1.50;99.90;;;;;;5094391;28;20222;-61
2021/11/12 06:06:50;;;;;;;29.83;9.73;;;1.50;99.90;;;;;;5093780;28;20224;-62
2021/11/12 06:09:19;;;;;;;16.45;7.93;;;1.50;99.90;;;;;;5094438;28;20219;-61
2021/11/12 06:11:50;;;;;;;16.95;8.73;;;1.50;99.90;;;;;;5090065;28;20187;-63
2021/11/12 06:14:20;;;;;;;15.93;8.88;;;1.50;99.90;;;;;;5094544;28;20626;-60
2021/11/12 06:16:49;;;;;;;17.35;9.35;;;1.50;99.90;;;;;;5094883;28;20264;-60
2021/11/12 06:19:18;;;;;;;18.38;9.00;;;1.50;99.90;;;;;;5094317;28;20238;-62
2021/11/12 06:21:46;;;;;;;16.33;8.68;;;1.50;99.90;;;;;;5093965;28;20274;-61
2021/11/12 06:24:14;;;;;;;20.45;9.85;;;1.40;99.90;;;;;;5094280;28;20245;-61
2021/11/12 06:26:43;;;;;;;14.43;8.88;;;1.50;99.90;;;;;;5083848;28;20208;-61
2021/11/12 06:29:11;;;;;;;20.42;10.23;;;1.50;99.90;;;;;;5072990;28;20486;-62
2021/11/12 06:31:41;;;;;;;17.75;9.18;;;1.50;99.90;;;;;;5074428;28;20238;-64
2021/11/12 06:34:09;;;;;;;23.27;10.10;;;1.50;99.90;;;;;;5073304;28;20265;-60
2021/11/12 06:36:38;;;;;;;19.80;9.93;;;1.50;99.90;;;;;;5074606;28;20303;-60
2021/11/12 06:39:08;;;;;;;30.73;10.75;;;1.40;99.90;;;;;;5073742;28;20242;-62
2021/11/12 06:41:57;;;;;;;16.38;9.65;;;1.40;99.90;;;;;;5086423;28;20624;-62
2021/11/12 06:44:54;;;;;;;19.30;8.80;;;1.30;99.90;;;;;;5093612;28;20231;-61
2021/11/12 06:50:15;;;;;;;23.25;8.82;;;1.30;99.90;;;;;;5080526;28;20747;-62
2021/11/12 06:52:46;;;;;;;19.15;9.10;;;1.40;99.90;;;;;;5074136;28;20188;-61
2021/11/12 06:55:16;;;;;;;34.35;9.45;;;1.30;99.90;;;;;;5082553;28;20215;-61
2021/11/12 06:57:45;;;;;;;21.13;8.45;;;1.30;99.90;;;;;;5076058;28;20191;-61
2021/11/12 07:00:15;;;;;;;23.00;9.20;;;1.30;99.90;;;;;;5072969;28;20228;-61
2021/11/12 07:02:45;;;;;;;28.55;8.63;;;1.30;99.90;;;;;;5074240;28;20187;-61
2021/11/12 07:05:14;;;;;;;19.80;9.23;;;1.40;99.90;;;;;;5073212;28;20227;-60
2021/11/12 07:07:43;;;;;;;32.75;11.90;;;1.40;99.90;;;;;;5073546;28;20199;-60
2021/11/12 07:10:11;;;;;;;24.80;10.98;;;1.40;99.90;;;;;;5071864;28;20231;-61
2021/11/12 07:12:40;;;;;;;34.10;10.43;;;1.40;99.90;;;;;;5085920;28;20191;-62
2021/11/12 07:15:09;;;;;;;26.67;9.63;;;1.50;99.90;;;;;;5093259;28;20886;-60
2021/11/12 07:17:38;;;;;;;24.98;9.73;;;1.50;99.90;;;;;;5092834;28;20258;-61
2021/11/12 07:20:09;;;;;;;19.45;10.77;;;1.50;99.90;;;;;;5092466;28;20397;-63
2021/11/12 07:22:37;;;;;;;33.50;10.88;;;1.60;99.90;;;;;;5073319;28;20203;-62
2021/11/12 07:25:07;;;;;;;20.40;10.23;;;1.60;99.90;;;;;;5089814;28;20222;-61
2021/11/12 07:27:36;;;;;;;24.67;10.77;;;1.60;99.90;;;;;;5092316;28;20645;-60
2021/11/12 07:30:14;;;;;;;29.30;13.15;;;1.60;99.90;;;;;;5093059;28;20226;-62
2021/11/12 07:32:44;;;;;;;35.35;11.10;;;1.60;99.90;;;;;;5089539;28;20697;-64
2021/11/12 07:35:21;;;;;;;15.93;9.90;;;1.60;99.90;;;;;;5080328;28;20218;-60
2021/11/12 07:37:56;;;;;;;28.23;9.90;;;1.70;99.90;;;;;;5108474;28;20247;-60
2021/11/12 07:40:30;;;;;;;16.25;10.20;;;1.70;99.90;;;;;;5093434;28;20219;-63
2021/11/12 07:43:19;;;;;;;20.27;10.10;;;1.70;99.90;;;;;;5090539;28;20209;-62
2021/11/12 07:45:59;;;;;;;19.13;9.27;;;1.80;99.90;;;;;;5092647;28;20268;-61
2021/11/12 07:48:27;;;;;;;18.85;9.90;;;1.80;99.90;;;;;;5073029;28;20199;-60
2021/11/12 07:50:57;;;;;;;18.60;9.43;;;1.80;99.90;;;;;;5079763;28;20692;-63
2021/11/12 07:53:26;;;;;;;21.92;9.70;;;1.90;99.90;;;;;;5080352;28;20188;-62
2021/11/12 07:55:54;;;;;;;20.25;10.85;;;1.90;99.90;;;;;;5089848;28;20215;-61
2021/11/12 07:58:23;;;;;;;13.68;9.05;;;1.90;99.90;;;;;;5087264;28;20233;-61
2021/11/12 08:00:51;;;;;;;25.95;10.63;;;1.90;99.90;;;;;;5092202;28;20257;-63
2021/11/12 08:03:20;;;;;;;15.80;10.77;;;2.00;99.90;;;;;;5091457;28;20282;-62
2021/11/12 08:05:51;;;;;;;14.45;10.13;;;2.00;99.90;;;;;;5083923;28;20222;-60
2021/11/12 08:08:24;;;;;;;18.27;9.57;;;2.00;99.90;;;;;;5088492;28;20199;-60
2021/11/12 08:10:55;;;;;;;15.18;10.13;;;2.10;99.90;;;;;;5090183;28;20223;-62
2021/11/12 08:13:32;;;;;;;17.58;9.57;;;2.10;99.90;;;;;;5077299;28;20187;-63
2021/11/12 08:18:51;;;;;;;17.83;10.95;;;2.20;99.90;;;;;;5067601;28;20238;-61
2021/11/12 08:21:22;;;;;;;16.25;10.82;;;2.20;99.90;;;;;;5072282;28;20261;-63
2021/11/12 08:26:45;;;;;;;23.25;11.00;;;2.30;99.90;;;;;;5064754;28;20236;-61
2021/11/12 08:29:24;;;;;;;16.42;11.40;;;2.40;99.90;;;;;;5051815;28;20224;-63
2021/11/12 08:32:14;;;;;;;19.85;12.88;;;2.40;99.90;;;;;;5052226;28;20666;-62
2021/11/12 08:34:51;;;;;;;19.35;12.60;;;2.50;99.90;;;;;;5053921;28;20219;-61
2021/11/12 08:37:30;;;;;;;15.73;11.52;;;2.50;99.90;;;;;;5072152;28;20193;-61
2021/11/12 08:40:08;;;;;;;19.67;11.95;;;2.50;99.90;;;;;;5071564;28;20763;-63
2021/11/12 08:42:40;;;;;;;19.17;11.20;;;2.60;99.90;;;;;;5066211;28;20247;-61
2021/11/12 08:45:16;;;;;;;21.95;14.20;;;2.60;99.90;;;;;;5051316;28;20315;-62
2021/11/12 08:47:48;;;;;;;21.10;11.35;;;2.60;99.90;;;;;;5051980;28;20565;-61
2021/11/12 08:50:18;;;;;;;16.00;11.27;;;2.60;99.90;;;;;;5051386;28;20674;-62
2021/11/12 08:52:48;;;;;;;15.82;11.10;;;2.60;99.90;;;;;;5052000;28;20215;-62
2021/11/12 08:55:26;;;;;;;13.52;11.15;;;2.70;99.90;;;;;;5052749;28;20224;-62
2021/11/12 08:57:55;;;;;;;16.50;11.35;;;2.70;99.90;;;;;;5070086;28;20191;-61
2021/11/12 09:00:23;;;;;;;16.85;11.55;;;2.80;99.90;;;;;;5071185;28;20219;-62
2021/11/12 09:02:52;;;;;;;18.67;13.00;;;2.80;99.90;;;;;;5071298;28;20187;-62
2021/11/12 09:05:22;;;;;;;18.42;12.13;;;2.90;99.90;;;;;;5062180;28;20644;-62
2021/11/12 09:07:51;;;;;;;17.98;12.30;;;2.90;99.90;;;;;;5063582;28;20198;-60
2021/11/12 09:10:27;;;;;;;18.70;13.30;;;3.00;99.90;;;;;;5057814;28;20704;-62
2021/11/12 09:13:00;;;;;;;18.73;12.48;;;3.10;99.90;;;;;;5064314;28;20635;-63
2021/11/12 09:15:30;;;;;;;16.40;11.68;;;3.10;99.90;;;;;;5050885;28;20228;-60
2021/11/12 09:18:00;;;;;;;23.05;14.40;;;;;;;;;;5051488;28;20216;-61
2021/11/12 09:20:30;;;;;;;16.50;12.88;;;3.30;99.90;;;;;;5051132;28;20290;-63
2021/11/12 09:23:00;;;;;;;21.52;14.88;;;3.40;99.90;;;;;;5059352;28;20188;-63
2021/11/12 09:25:30;;;;;;;20.60;13.55;;;3.40;99.90;;;;;;5069189;28;20211;-62
2021/11/12 09:27:58;;;;;;;18.35;12.90;;;3.50;99.90;;;;;;5066043;28;20200;-61
2021/11/12 09:30:35;;;;;;;21.52;14.63;;;3.50;99.90;;;;;;5052264;28;20211;-61
2021/11/12 09:33:05;;;;;;;19.55;13.90;;;3.60;99.90;;;;;;5071591;28;20195;-62
2021/11/12 09:35:35;;;;;;;16.40;13.30;;;3.60;99.90;;;;;;5051459;28;20232;-61
2021/11/12 09:38:03;;;;;;;23.52;14.90;;;;;;;;;;5053690;28;20548;-60
2021/11/12 09:40:33;;;;;;;19.85;13.55;;;3.70;99.90;;;;;;5051757;28;20231;-63
2021/11/12 09:43:02;;;;;;;21.95;14.02;;;3.80;99.90;;;;;;5053166;28;20569;-61
2021/11/12 09:45:30;;;;;;;19.02;13.05;;;3.80;99.90;;;;;;5057213;28;20223;-61
2021/11/12 09:47:59;;;;;;;20.95;13.85;;;3.80;99.90;;;;;;5061810;28;20683;-61
2021/11/12 09:50:29;;;;;;;17.42;12.23;;;3.70;99.90;;;;;;5064702;28;20273;-62
2021/11/12 09:52:59;;;;;;;22.70;13.90;;;3.80;99.90;;;;;;5051377;28;20693;-62
2021/11/12 09:55:30;;;;;;;17.58;12.27;;;3.90;99.90;;;;;;5058593;28;20273;-61
2021/11/12 09:58:02;;;;;;;25.00;14.88;;;4.00;99.90;;;;;;5063955;28;20196;-60
2021/11/12 10:00:32;;;;;;;24.15;14.10;;;4.20;99.90;;;;;;5070441;28;20284;-61
2021/11/12 10:03:02;;;;;;;20.73;14.77;;;4.20;99.90;;;;;;5058384;28;20216;-62
2021/11/12 10:05:35;;;;;;;30.52;14.80;;;4.20;99.90;;;;;;5074673;28;20223;-61
2021/11/12 10:08:19;;;;;;;25.30;15.48;;;4.20;99.90;;;;;;5048943;28;20192;-61
2021/11/12 10:10:48;;;;;;;20.38;14.70;;;4.30;99.90;;;;;;5053811;28;20216;-61
2021/11/12 10:13:23;;;;;;;22.95;14.45;;;;;;;;;;5058871;28;20195;-63
2021/11/12 10:16:13;;;;;;;24.40;16.17;;;4.50;99.90;;;;;;5060570;28;20211;-61
2021/11/12 10:19:07;;;;;;;21.88;15.10;;;4.50;99.90;;;;;;5072065;28;20657;-61
2021/11/12 10:21:38;;;;;;;22.48;13.50;;;4.70;99.90;;;;;;5074724;28;20261;-61
2021/11/12 10:24:11;;;;;;;24.05;15.07;;;4.80;99.90;;;;;;5066334;28;20220;-63
2021/11/12 10:26:39;;;;;;;22.90;15.50;;;4.90;99.90;;;;;;5054430;28;20217;-60
2021/11/12 10:29:10;;;;;;;25.52;15.95;;;;;;;;;;5054080;28;20266;-60
2021/11/12 10:31:42;;;;;;;19.38;15.55;;;5.10;99.90;;;;;;5057022;28;20203;-62
2021/11/12 10:34:12;;;;;;;23.25;15.82;;;;;;;;;;5052776;28;20690;-62
2021/11/12 10:36:56;;;;;;;24.98;15.82;;;;;;;;;;5054513;28;20303;-61
2021/11/12 10:39:42;;;;;;;24.95;15.70;;;;;;;;;;5053865;28;20265;-61
2021/11/12 10:42:12;;;;;;;22.40;15.40;;;;;;;;;;5053873;28;20212;-61
2021/11/12 10:44:43;;;;;;;23.33;14.75;;;;;;;;;;5073408;28;20285;-61
2021/11/12 10:47:12;;;;;;;20.40;15.20;;;5.80;99.90;;;;;;5072357;28;20211;-60
2021/11/12 10:49:46;;;;;;;16.60;13.57;;;5.90;99.90;;;;;;5072923;28;20223;-60
2021/11/12 10:52:20;;;;;;;19.60;14.70;;;6.00;99.90;;;;;;5053947;28;20208;-61
2021/11/12 10:54:54;;;;;;;22.45;14.77;;;6.10;99.90;;;;;;5061288;28;20211;-61
2021/11/12 10:57:25;;;;;;;18.27;14.02;;;;;;;;;;5058814;28;20241;-60
2021/11/12 10:59:57;;;;;;;20.95;15.48;;;;;;;;;;5069957;28;20229;-60
2021/11/12 11:02:26;;;;;;;23.45;15.50;;;;;;;;;;5056600;28;20220;-61
2021/11/12 11:04:59;;;;;;;23.50;15.70;;;;;;;;;;5051943;28;20216;-62
2021/11/12 11:07:29;;;;;;;21.60;15.63;;;;;;;;;;5063902;28;20207;-60
2021/11/12 11:09:58;;;;;;;26.20;14.95;;;;;;;;;;5065555;28;20220;-61
2021/11/12 11:12:43;;;;;;;19.05;14.80;;;;;;;;;;5054173;28;20686;-62
2021/11/12 11:15:15;;;;;;;20.80;14.50;;;;;;;;;;5052185;28;20694;-62
2021/11/12 11:17:45;;;;;;;18.08;14.35;;;;;;;;;;5053697;28;20654;-60
2021/11/12 11:20:17;;;;;;;21.90;15.60;;;;;;;;;;5053126;28;20231;-60
2021/11/12 11:22:52;;;;;;;24.38;15.65;;;;;;;;;;5052853;28;20220;-62
2021/11/12 11:25:21;;;;;;;22.60;14.55;;;;;;;;;;5052588;28;20741;-62
2021/11/12 11:27:50;;;;;;;22.30;15.38;;;;;;;;;;5052521;28;20239;-61
2021/11/12 11:30:20;;;;;;;18.90;15.77;;;;;;;;;;5062033;28;20301;-61
2021/11/12 11:32:48;;;;;;;19.55;14.27;;;;;;;;;;5058384;28;20545;-62
2021/11/12 11:35:18;;;;;;;22.23;16.70;;;7.50;99.90;;;;;;5054523;28;20235;-62
2021/11/12 11:37:46;;;;;;;19.98;15.15;;;;;;;;;;5053591;28;20195;-61
2021/11/12 11:40:16;;;;;;;17.08;14.57;;;7.60;99.90;;;;;;5059008;28;20211;-60
2021/11/12 11:42:45;;;;;;;20.00;15.00;;;7.70;99.90;;;;;;5066961;28;20234;-62
2021/11/12 11:45:15;;;;;;;20.10;14.65;;;7.70;99.90;;;;;;5067149;28;20586;-62
2021/11/12 11:47:46;;;;;;;19.30;14.10;;;7.80;99.90;;;;;;5073076;28;20717;-61
2021/11/12 11:50:27;;;;;;;22.80;15.75;;;7.80;99.90;;;;;;5071306;28;20220;-61
2021/11/12 11:53:18;;;;;;;18.42;14.95;;;7.90;99.90;;;;;;5072996;28;20198;-63
2021/11/12 11:55:46;;;;;;;22.58;16.70;;;8.00;99.90;;;;;;5058550;28;20248;-62
2021/11/12 11:58:32;;;;;;;20.50;15.37;;;8.00;99.90;;;;;;5051718;28;20192;-61
2021/11/12 12:01:45;;;;;;;23.88;15.60;;;8.10;99.90;;;;;;5055197;28;21036;-61
2021/11/12 12:04:39;;;;;;;18.90;15.10;;;8.20;99.90;;;;;;5049584;28;20219;-64
2021/11/12 12:07:42;;;;;;;22.27;15.80;;;8.30;99.90;;;;;;5062263;28;20533;-61
2021/11/12 12:10:25;;;;;;;21.38;15.20;;;8.20;99.90;;;;;;5057964;28;20701;-61
2021/11/12 12:13:05;;;;;;;20.73;16.03;;;8.30;99.90;;;;;;5052639;28;20201;-62
2021/11/12 12:15:40;;;;;;;24.60;14.87;;;8.40;99.90;;;;;;5078328;22;20547;-59
2021/11/12 12:18:35;;;;;;;18.83;14.23;;;8.60;99.90;;;;;;5052572;28;20445;-56
2021/11/12 12:33:19;;;;;;;22.30;16.50;;;8.90;99.90;;;;;;5052282;28;20437;-57
2021/11/12 13:20:28;;;;;;;20.07;15.70;;;10.30;99.90;;;;;;5043167;28;20458;-59
2021/11/12 13:23:27;;;;;;;17.07;14.70;;;10.20;99.90;;;;;;5049650;28;20459;-56
2021/11/12 13:25:57;;;;;;;18.00;14.63;;;10.20;99.90;;;;;;5049214;28;20557;-56
2021/11/12 13:28:28;;;;;;;20.87;15.23;;;10.30;99.90;;;;;;5050620;28;20481;-58
2021/11/12 13:30:59;;;;;;;38.10;32.50;;;10.40;99.90;;;;;;5050121;28;20828;-58
2021/11/12 13:33:43;;;;;;;28.63;23.67;;;10.40;99.90;;;;;;5058004;28;20450;-57
2021/11/12 13:36:21;;;;;;;23.17;17.50;;;10.40;99.90;;;;;;5050642;28;20464;-56
2021/11/12 13:38:55;;;;;;;20.37;14.67;;;10.40;99.90;;;;;;5050131;28;20442;-57
2021/11/12 13:41:36;;;;;;;22.23;14.50;;;10.40;99.90;;;;;;5049325;28;20450;-58
2021/11/12 13:44:07;;;;;;;19.33;14.10;;;10.40;99.90;;;;;;5050402;28;20462;-56
2021/11/12 13:46:48;;;;;;;18.83;15.47;;;10.50;99.90;;;;;;5051395;28;20457;-58
2021/11/12 13:49:27;;;;;;;18.47;13.57;;;10.40;99.90;;;;;;5051527;28;20516;-59
2021/11/12 13:52:01;;;;;;;21.03;15.57;;;10.40;99.90;;;;;;5057944;28;20549;-58
2021/11/12 13:54:30;;;;;;;18.10;14.80;;;10.30;99.90;;;;;;5054345;28;20458;-55
2021/11/12 13:56:58;;;;;;;17.60;13.23;;;10.20;99.90;;;;;;5053725;28;20509;-58
2021/11/12 13:59:28;;;;;;;17.20;13.23;;;10.20;99.90;;;;;;5054523;28;20911;-58
2021/11/12 14:02:03;;;;;;;19.83;14.20;;;10.00;99.90;;;;;;5053492;28;20504;-58
2021/11/12 14:04:33;;;;;;;16.70;14.33;;;10.00;99.90;;;;;;5054255;28;20971;-58
2021/11/12 14:07:02;;;;;;;21.03;14.73;;;10.00;99.90;;;;;;5054995;28;20935;-58
2021/11/12 14:09:34;;;;;;;19.83;14.63;;;10.00;99.90;;;;;;5053886;28;20855;-58
2021/11/12 14:12:07;;;;;;;18.87;13.07;;;10.10;99.90;;;;;;5054328;28;21045;-58
2021/11/12 14:14:39;;;;;;;17.37;14.20;;;10.00;99.90;;;;;;5053824;28;20979;-58
2021/11/12 14:17:25;;;;;;;16.50;12.17;;;10.00;99.90;;;;;;5055753;28;20477;-58
2021/11/12 14:20:20;;;;;;;20.87;14.57;;;9.90;99.90;;;;;;5053827;28;20521;-58
2021/11/12 14:22:54;;;;;;;18.50;14.83;;;9.70;99.90;;;;;;5054076;28;20994;-58
2021/11/12 14:25:32;;;;;;;16.00;13.60;;;9.70;99.90;;;;;;5032162;28;20463;-58
2021/11/12 14:28:08;;;;;;;18.13;14.63;;;9.60;99.90;;;;;;5053979;28;20824;-58
2021/11/12 14:31:10;;;;;;;16.53;13.90;;;9.50;99.90;;;;;;5054222;28;20508;-58
2021/11/12 14:33:43;;;;;;;19.13;14.30;;;9.50;99.90;;;;;;5054520;28;20894;-58
2021/11/12 14:36:20;;;;;;;19.10;13.90;;;9.40;99.90;;;;;;5058730;28;20489;-58
2021/11/12 14:39:03;;;;;;;18.00;14.10;;;9.30;99.90;;;;;;5073953;28;20492;-58
2021/11/12 14:41:48;;;;;;;18.07;13.23;;;9.20;99.90;;;;;;5066447;28;20465;-58
2021/11/12 14:47:11;;;;;;;17.03;12.63;;;9.10;99.90;;;;;;5052770;28;20521;-58
2021/11/12 14:49:48;;;;;;;15.20;12.57;;;9.00;99.90;;;;;;5053843;28;20474;-58
2021/11/12 14:52:23;;;;;;;18.37;13.40;;;9.00;99.90;;;;;;5053271;28;20457;-58
2021/11/12 14:55:06;;;;;;;18.53;13.17;;;8.90;99.90;;;;;;5052401;28;20526;-58
2021/11/12 14:57:37;;;;;;;18.27;13.77;;;8.90;99.90;;;;;;5034347;28;20447;-58
2021/11/12 15:00:13;;;;;;;16.87;12.87;;;8.80;99.90;;;;;;5052630;28;20471;-58
2021/11/12 15:02:43;;;;;;;16.97;12.20;;;8.80;99.90;;;;;;5052980;28;20469;-58
2021/11/12 15:05:14;;;;;;;15.60;13.13;;;8.70;99.90;;;;;;5052150;28;20463;-58
2021/11/12 15:07:45;;;;;;;18.53;13.53;;;8.70;99.90;;;;;;5053935;28;20431;-57
2021/11/12 15:10:16;;;;;;;16.77;13.53;;;8.50;99.90;;;;;;5053065;28;20521;-58
2021/11/12 15:12:51;;;;;;;17.90;12.67;;;8.50;99.90;;;;;;5065014;28;20541;-57
2021/11/12 15:15:20;;;;;;;16.53;12.83;;;8.40;99.90;;;;;;5072599;28;21055;-57
2021/11/12 15:17:51;;;;;;;15.90;11.93;;;8.40;99.90;;;;;;5056098;28;21189;-57
2021/11/12 15:20:20;;;;;;;17.57;12.33;;;8.40;99.90;;;;;;5052782;28;20466;-58
2021/11/12 15:23:02;;;;;;;18.60;12.00;;;8.30;99.90;;;;;;5054764;28;20439;-57
2021/11/12 15:25:37;;;;;;;17.17;13.00;;;8.20;99.90;;;;;;5034833;28;20481;-57
2021/11/12 15:28:13;;;;;;;18.08;12.55;;;8.20;99.90;;;;;;5052961;28;20438;-57
2021/11/12 15:30:48;;;;;;;18.57;12.30;;;8.00;99.90;;;;;;5052287;28;20228;-57
2021/11/12 15:33:19;;;;;;;17.70;13.60;;;8.10;99.90;;;;;;5027253;28;20487;-57
2021/11/12 15:35:48;;;;;;;17.08;14.63;;;8.00;99.90;;;;;;5039763;28;20593;-57
2021/11/12 15:38:19;;;;;;;18.75;13.48;;;7.90;99.90;;;;;;5047544;28;20196;-58
2021/11/12 15:40:54;;;;;;;21.92;12.27;;;7.90;99.90;;;;;;5051713;28;20574;-57
2021/11/12 15:43:25;;;;;;;18.75;13.55;;;7.80;99.90;;;;;;5052969;28;20204;-57
2021/11/12 15:46:00;;;;;;;16.98;13.88;;;7.70;99.90;;;;;;5051604;28;20228;-57
2021/11/12 15:48:34;;;;;;;18.20;13.10;;;7.60;99.90;;;;;;5057005;28;20191;-57
2021/11/12 15:51:21;;;;;;;19.38;13.50;;;7.60;99.90;;;;;;5069811;28;20225;-58
2021/11/12 15:53:54;;;;;;;17.50;13.80;;;7.50;99.90;;;;;;5059700;28;20185;-57
2021/11/12 15:56:48;;;;;;;17.15;12.90;;;7.50;99.90;;;;;;5057585;28;20221;-58
2021/11/12 15:59:29;;;;;;;17.92;12.35;;;7.40;99.90;;;;;;5055520;28;20230;-58
2021/11/12 16:05:21;;;;;;;16.90;12.93;;;7.30;99.90;;;;;;4985455;28;20249;-58
2021/11/12 16:07:58;;;;;;;13.45;11.50;;;7.20;99.90;;;;;;5047799;28;20222;-58
2021/11/12 16:10:53;;;;;;;14.20;11.30;;;7.20;99.90;;;;;;5052043;28;20625;-58
2021/11/12 16:13:22;;;;;;;13.35;10.80;;;7.10;99.90;;;;;;5051347;28;20191;-58
2021/11/12 16:18:56;;;;;;;12.68;10.95;;;7.10;99.90;;;;;;4990180;28;20206;-58
2021/11/12 16:24:38;;;;;;;20.35;13.35;;;7.00;99.90;;;;;;5025915;28;20228;-58
2021/11/12 16:27:08;;;;;;;15.80;13.05;;;6.90;99.90;;;;;;5051104;28;20670;-58
2021/11/12 16:29:40;;;;;;;15.00;11.68;;;6.90;99.90;;;;;;5051138;28;20216;-58
2021/11/12 16:32:12;;;;;;;19.08;15.38;;;6.90;99.90;;;;;;5052311;28;20597;-58
2021/11/12 16:34:44;;;;;;;17.90;13.05;;;6.80;99.90;;;;;;5051243;28;20267;-58
2021/11/12 16:37:17;;;;;;;13.95;12.32;;;6.80;99.90;;;;;;5052248;28;20280;-58
2021/11/12 16:39:48;;;;;;;18.38;13.90;;;6.80;99.90;;;;;;5051709;28;20274;-58
2021/11/12 16:42:41;;;;;;;18.02;14.45;;;6.70;99.90;;;;;;5033836;28;20246;-58
2021/11/12 16:45:15;;;;;;;18.15;13.90;;;6.70;99.90;;;;;;5051072;28;20763;-58
2021/11/12 16:48:02;;;;;;;22.20;13.30;;;6.70;99.90;;;;;;5019979;28;20226;-57
2021/11/12 16:50:39;;;;;;;17.45;15.52;;;6.70;99.90;;;;;;5050238;28;20215;-60
2021/11/12 16:53:18;;;;;;;18.75;13.77;;;6.60;99.90;;;;;;5051395;28;20650;-60
2021/11/12 16:58:36;;;;;;;21.98;13.80;;;6.60;99.90;;;;;;5038445;28;20200;-60
2021/11/12 17:04:06;;;;;;;20.88;13.07;;;6.60;99.90;;;;;;5051075;28;20244;-60
2021/11/12 17:06:41;;;;;;;15.90;11.27;;;6.50;99.90;;;;;;5051087;28;20224;-60
2021/11/12 17:09:22;;;;;;;16.17;10.73;;;6.50;99.90;;;;;;5050494;28;20266;-60